Terminal Aerodrome Forecast
Issued by NWS Charleston, WV

Current Version | Previous Version | Text Only | Print | Product List | Glossary Off
Versions: 1 2 3 4 5 6 7 8 9 10 11 12 13 14 15 16 17 18 19 20 21 22 23 24

603
FTUS41 KRLX 151127
TAFPKB
TAF
KPKB 151127Z 1512/1612 13003KT 6SM -SN OVC035
     FM151300 15007KT 5SM -SN OVC015
      TEMPO 1513/1517 1SM -SN OVC008
     FM151700 17008KT P6SM OVC025
     FM151900 18008KT P6SM OVC060
     FM160100 18008KT 4SM -SN OVC025
     FM160300 21004KT 1/2SM SN OVC003
     FM160800 22003KT 1 1/2SM -SN OVC008
     FM161000 24003KT 3SM -SN OVC010=

USA.gov is the U.S. government's official web portal to all federal, state and local government web resources and services.